sensor_id;sensor_type;location;lat;lon;timestamp;temperature;humidity
52415;DHT22;38340;52.964;6.086;2022-09-02T00:01:47;14.20;99.90
52415;DHT22;38340;52.964;6.086;2022-09-02T00:04:19;14.20;99.90
52415;DHT22;38340;52.964;6.086;2022-09-02T00:06:46;14.10;99.90
52415;DHT22;38340;52.964;6.086;2022-09-02T00:09:15;14.10;99.90
52415;DHT22;38340;52.964;6.086;2022-09-02T00:11:42;14.10;99.90
52415;DHT22;38340;52.964;6.086;2022-09-02T00:14:15;14.10;99.90
52415;DHT22;38340;52.964;6.086;2022-09-02T00:16:41;14.00;99.90
52415;DHT22;38340;52.964;6.086;2022-09-02T00:19:20;14.00;99.90
52415;DHT22;38340;52.964;6.086;2022-09-02T00:21:47;13.90;99.90
52415;DHT22;38340;52.964;6.086;2022-09-02T00:24:12;13.90;99.90
52415;DHT22;38340;52.964;6.086;2022-09-02T00:26:38;13.90;99.90
52415;DHT22;38340;52.964;6.086;2022-09-02T00:29:05;13.90;99.90
52415;DHT22;38340;52.964;6.086;2022-09-02T00:31:31;13.80;99.90
52415;DHT22;38340;52.964;6.086;2022-09-02T00:33:58;13.80;99.90
52415;DHT22;38340;52.964;6.086;2022-09-02T00:36:25;13.80;99.90
52415;DHT22;38340;52.964;6.086;2022-09-02T00:38:51;13.70;99.90
52415;DHT22;38340;52.964;6.086;2022-09-02T00:41:20;13.70;99.90
52415;DHT22;38340;52.964;6.086;2022-09-02T00:43:59;13.70;99.90
52415;DHT22;38340;52.964;6.086;2022-09-02T00:46:27;13.70;99.90
52415;DHT22;38340;52.964;6.086;2022-09-02T00:51:19;13.60;99.90
52415;DHT22;38340;52.964;6.086;2022-09-02T00:53:46;13.50;99.90
52415;DHT22;38340;52.964;6.086;2022-09-02T00:56:18;13.50;99.90
52415;DHT22;38340;52.964;6.086;2022-09-02T00:58:45;13.50;99.90
52415;DHT22;38340;52.964;6.086;2022-09-02T01:01:10;13.40;99.90
52415;DHT22;38340;52.964;6.086;2022-09-02T01:03:37;13.40;99.90
52415;DHT22;38340;52.964;6.086;2022-09-02T01:06:03;13.40;99.90
52415;DHT22;38340;52.964;6.086;2022-09-02T01:08:33;13.30;99.90
52415;DHT22;38340;52.964;6.086;2022-09-02T01:11:01;13.30;99.90
52415;DHT22;38340;52.964;6.086;2022-09-02T01:13:29;13.30;99.90
52415;DHT22;38340;52.964;6.086;2022-09-02T01:15:59;13.30;99.90
52415;DHT22;38340;52.964;6.086;2022-09-02T01:18:28;13.20;99.90
52415;DHT22;38340;52.964;6.086;2022-09-02T01:20:58;13.20;99.90
52415;DHT22;38340;52.964;6.086;2022-09-02T01:23:26;13.20;99.90
52415;DHT22;38340;52.964;6.086;2022-09-02T01:25:53;13.20;99.90
52415;DHT22;38340;52.964;6.086;2022-09-02T01:28:19;13.10;99.90
52415;DHT22;38340;52.964;6.086;2022-09-02T01:30:49;13.10;99.90
52415;DHT22;38340;52.964;6.086;2022-09-02T01:33:17;13.00;99.90
52415;DHT22;38340;52.964;6.086;2022-09-02T01:35:44;13.10;99.90
52415;DHT22;38340;52.964;6.086;2022-09-02T01:38:10;13.00;99.90
52415;DHT22;38340;52.964;6.086;2022-09-02T01:40:35;13.00;99.90
52415;DHT22;38340;52.964;6.086;2022-09-02T01:43:09;13.00;99.90
52415;DHT22;38340;52.964;6.086;2022-09-02T01:45:36;13.00;99.90
52415;DHT22;38340;52.964;6.086;2022-09-02T01:48:03;12.90;99.90
52415;DHT22;38340;52.964;6.086;2022-09-02T01:50:29;12.90;99.90
52415;DHT22;38340;52.964;6.086;2022-09-02T01:52:57;12.90;99.90
52415;DHT22;38340;52.964;6.086;2022-09-02T01:55:22;12.90;99.90
52415;DHT22;38340;52.964;6.086;2022-09-02T01:57:48;12.90;99.90
52415;DHT22;38340;52.964;6.086;2022-09-02T02:00:15;12.80;99.90
52415;DHT22;38340;52.964;6.086;2022-09-02T02:02:40;12.80;99.90
52415;DHT22;38340;52.964;6.086;2022-09-02T02:05:07;12.80;99.90
52415;DHT22;38340;52.964;6.086;2022-09-02T02:07:33;12.70;99.90
52415;DHT22;38340;52.964;6.086;2022-09-02T02:09:59;12.70;99.90
52415;DHT22;38340;52.964;6.086;2022-09-02T02:12:25;12.70;99.90
52415;DHT22;38340;52.964;6.086;2022-09-02T02:14:50;12.70;99.90
52415;DHT22;38340;52.964;6.086;2022-09-02T02:17:16;12.60;99.90
52415;DHT22;38340;52.964;6.086;2022-09-02T02:19:42;12.60;99.90
52415;DHT22;38340;52.964;6.086;2022-09-02T02:22:09;12.60;99.90
52415;DHT22;38340;52.964;6.086;2022-09-02T02:24:35;12.60;99.90
52415;DHT22;38340;52.964;6.086;2022-09-02T02:27:01;12.60;99.90
52415;DHT22;38340;52.964;6.086;2022-09-02T02:29:27;12.60;99.90
52415;DHT22;38340;52.964;6.086;2022-09-02T02:31:53;12.50;99.90
52415;DHT22;38340;52.964;6.086;2022-09-02T02:34:18;12.50;99.90
52415;DHT22;38340;52.964;6.086;2022-09-02T02:36:44;12.50;99.90
52415;DHT22;38340;52.964;6.086;2022-09-02T02:39:11;12.50;99.90
52415;DHT22;38340;52.964;6.086;2022-09-02T02:41:38;12.50;99.90
52415;DHT22;38340;52.964;6.086;2022-09-02T02:44:04;12.50;99.90
52415;DHT22;38340;52.964;6.086;2022-09-02T02:46:30;12.50;99.90
52415;DHT22;38340;52.964;6.086;2022-09-02T02:48:58;12.40;99.90
52415;DHT22;38340;52.964;6.086;2022-09-02T02:51:25;12.40;99.90
52415;DHT22;38340;52.964;6.086;2022-09-02T02:53:50;12.40;99.90
52415;DHT22;38340;52.964;6.086;2022-09-02T02:56:16;12.40;99.90
52415;DHT22;38340;52.964;6.086;2022-09-02T02:58:42;12.40;99.90
52415;DHT22;38340;52.964;6.086;2022-09-02T03:01:08;12.40;99.90
52415;DHT22;38340;52.964;6.086;2022-09-02T03:03:34;12.40;99.90
52415;DHT22;38340;52.964;6.086;2022-09-02T03:06:00;12.30;99.90
52415;DHT22;38340;52.964;6.086;2022-09-02T03:08:26;12.30;99.90
52415;DHT22;38340;52.964;6.086;2022-09-02T03:10:54;12.30;99.90
52415;DHT22;38340;52.964;6.086;2022-09-02T03:13:24;12.30;99.90
52415;DHT22;38340;52.964;6.086;2022-09-02T03:15:50;12.30;99.90
52415;DHT22;38340;52.964;6.086;2022-09-02T03:18:16;12.30;99.90
52415;DHT22;38340;52.964;6.086;2022-09-02T03:20:43;12.20;99.90
52415;DHT22;38340;52.964;6.086;2022-09-02T03:23:10;12.20;99.90
52415;DHT22;38340;52.964;6.086;2022-09-02T03:25:43;12.20;99.90
52415;DHT22;38340;52.964;6.086;2022-09-02T03:28:10;12.20;99.90
52415;DHT22;38340;52.964;6.086;2022-09-02T03:30:36;12.20;99.90
52415;DHT22;38340;52.964;6.086;2022-09-02T03:33:04;12.20;99.90
52415;DHT22;38340;52.964;6.086;2022-09-02T03:35:31;12.20;99.90
52415;DHT22;38340;52.964;6.086;2022-09-02T03:37:59;12.10;99.90
52415;DHT22;38340;52.964;6.086;2022-09-02T03:40:26;12.10;99.90
52415;DHT22;38340;52.964;6.086;2022-09-02T03:42:52;12.10;99.90
52415;DHT22;38340;52.964;6.086;2022-09-02T03:45:19;12.10;99.90
52415;DHT22;38340;52.964;6.086;2022-09-02T03:47:46;12.00;99.90
52415;DHT22;38340;52.964;6.086;2022-09-02T03:50:24;12.00;99.90
52415;DHT22;38340;52.964;6.086;2022-09-02T03:52:50;12.10;99.90
52415;DHT22;38340;52.964;6.086;2022-09-02T03:55:17;12.00;99.90
52415;DHT22;38340;52.964;6.086;2022-09-02T03:57:43;12.00;99.90
52415;DHT22;38340;52.964;6.086;2022-09-02T04:00:11;12.00;99.90
52415;DHT22;38340;52.964;6.086;2022-09-02T04:02:37;11.90;99.90
52415;DHT22;38340;52.964;6.086;2022-09-02T04:05:04;11.90;99.90
52415;DHT22;38340;52.964;6.086;2022-09-02T04:07:30;11.90;99.90
52415;DHT22;38340;52.964;6.086;2022-09-02T04:09:56;11.90;99.90
52415;DHT22;38340;52.964;6.086;2022-09-02T04:12:22;11.90;99.90
52415;DHT22;38340;52.964;6.086;2022-09-02T04:14:47;11.90;99.90
52415;DHT22;38340;52.964;6.086;2022-09-02T04:17:13;11.90;99.90
52415;DHT22;38340;52.964;6.086;2022-09-02T04:19:39;11.80;99.90
52415;DHT22;38340;52.964;6.086;2022-09-02T04:22:06;11.80;99.90
52415;DHT22;38340;52.964;6.086;2022-09-02T04:24:32;11.80;99.90
52415;DHT22;38340;52.964;6.086;2022-09-02T04:26:58;11.80;99.90
52415;DHT22;38340;52.964;6.086;2022-09-02T04:29:24;11.80;99.90
52415;DHT22;38340;52.964;6.086;2022-09-02T04:31:51;11.80;99.90
52415;DHT22;38340;52.964;6.086;2022-09-02T04:34:17;11.80;99.90
52415;DHT22;38340;52.964;6.086;2022-09-02T04:36:43;11.80;99.90
52415;DHT22;38340;52.964;6.086;2022-09-02T04:39:08;11.80;99.90
52415;DHT22;38340;52.964;6.086;2022-09-02T04:41:34;11.70;99.90
52415;DHT22;38340;52.964;6.086;2022-09-02T04:44:01;11.70;99.90
52415;DHT22;38340;52.964;6.086;2022-09-02T04:46:27;11.70;99.90
52415;DHT22;38340;52.964;6.086;2022-09-02T04:48:53;11.70;99.90
52415;DHT22;38340;52.964;6.086;2022-09-02T04:51:22;11.70;99.90
52415;DHT22;38340;52.964;6.086;2022-09-02T04:53:49;11.70;99.90
52415;DHT22;38340;52.964;6.086;2022-09-02T04:56:24;11.70;99.90
52415;DHT22;38340;52.964;6.086;2022-09-02T04:58:50;11.70;99.90
52415;DHT22;38340;52.964;6.086;2022-09-02T05:01:19;11.70;99.90
52415;DHT22;38340;52.964;6.086;2022-09-02T05:03:46;11.70;99.90
52415;DHT22;38340;52.964;6.086;2022-09-02T05:06:15;11.70;99.90
52415;DHT22;38340;52.964;6.086;2022-09-02T05:08:42;11.70;99.90
52415;DHT22;38340;52.964;6.086;2022-09-02T05:11:10;11.70;99.90
52415;DHT22;38340;52.964;6.086;2022-09-02T05:13:36;11.80;99.90
52415;DHT22;38340;52.964;6.086;2022-09-02T05:16:02;11.80;99.90
52415;DHT22;38340;52.964;6.086;2022-09-02T05:18:28;11.80;99.90
52415;DHT22;38340;52.964;6.086;2022-09-02T05:20:54;11.80;99.90
52415;DHT22;38340;52.964;6.086;2022-09-02T05:23:20;11.90;99.90
52415;DHT22;38340;52.964;6.086;2022-09-02T05:25:49;11.90;99.90
52415;DHT22;38340;52.964;6.086;2022-09-02T05:28:15;11.90;99.90
52415;DHT22;38340;52.964;6.086;2022-09-02T05:30:41;11.90;99.90
52415;DHT22;38340;52.964;6.086;2022-09-02T05:33:08;12.00;99.90
52415;DHT22;38340;52.964;6.086;2022-09-02T05:35:35;12.00;99.90
52415;DHT22;38340;52.964;6.086;2022-09-02T05:38:03;12.10;99.90
52415;DHT22;38340;52.964;6.086;2022-09-02T05:40:29;12.20;99.90
52415;DHT22;38340;52.964;6.086;2022-09-02T05:42:55;12.20;99.90
52415;DHT22;38340;52.964;6.086;2022-09-02T05:45:20;12.30;99.90
52415;DHT22;38340;52.964;6.086;2022-09-02T05:47:48;12.30;99.90
52415;DHT22;38340;52.964;6.086;2022-09-02T05:50:14;12.40;99.90
52415;DHT22;38340;52.964;6.086;2022-09-02T05:52:41;12.50;99.90
52415;DHT22;38340;52.964;6.086;2022-09-02T05:55:08;12.50;99.90
52415;DHT22;38340;52.964;6.086;2022-09-02T05:57:34;12.60;99.90
52415;DHT22;38340;52.964;6.086;2022-09-02T05:59:59;12.70;99.90
52415;DHT22;38340;52.964;6.086;2022-09-02T06:02:25;12.70;99.90
52415;DHT22;38340;52.964;6.086;2022-09-02T06:04:52;12.80;99.90
52415;DHT22;38340;52.964;6.086;2022-09-02T06:07:20;12.90;99.90
52415;DHT22;38340;52.964;6.086;2022-09-02T06:09:47;12.90;99.90
52415;DHT22;38340;52.964;6.086;2022-09-02T06:12:13;13.00;99.90
52415;DHT22;38340;52.964;6.086;2022-09-02T06:14:40;13.10;99.90
52415;DHT22;38340;52.964;6.086;2022-09-02T06:17:06;13.20;99.90
52415;DHT22;38340;52.964;6.086;2022-09-02T06:19:32;13.30;99.90
52415;DHT22;38340;52.964;6.086;2022-09-02T06:21:59;13.40;99.90
52415;DHT22;38340;52.964;6.086;2022-09-02T06:24:26;13.40;99.90
52415;DHT22;38340;52.964;6.086;2022-09-02T06:26:53;13.50;99.90
52415;DHT22;38340;52.964;6.086;2022-09-02T06:29:19;13.70;99.90
52415;DHT22;38340;52.964;6.086;2022-09-02T06:31:46;13.70;99.90
52415;DHT22;38340;52.964;6.086;2022-09-02T06:34:13;13.90;99.90
52415;DHT22;38340;52.964;6.086;2022-09-02T06:36:42;14.00;99.90
52415;DHT22;38340;52.964;6.086;2022-09-02T06:39:11;14.10;99.90
52415;DHT22;38340;52.964;6.086;2022-09-02T06:41:38;14.30;99.90
52415;DHT22;38340;52.964;6.086;2022-09-02T06:44:05;14.40;99.90
52415;DHT22;38340;52.964;6.086;2022-09-02T06:46:42;14.60;99.90
52415;DHT22;38340;52.964;6.086;2022-09-02T06:49:09;14.70;99.90
52415;DHT22;38340;52.964;6.086;2022-09-02T06:51:40;14.80;99.90
52415;DHT22;38340;52.964;6.086;2022-09-02T06:54:08;15.00;99.90
52415;DHT22;38340;52.964;6.086;2022-09-02T06:56:34;15.10;99.90
52415;DHT22;38340;52.964;6.086;2022-09-02T06:59:00;15.20;99.90
52415;DHT22;38340;52.964;6.086;2022-09-02T07:01:29;15.30;99.90
52415;DHT22;38340;52.964;6.086;2022-09-02T07:03:56;15.50;99.90
52415;DHT22;38340;52.964;6.086;2022-09-02T07:06:44;15.60;99.90
52415;DHT22;38340;52.964;6.086;2022-09-02T07:09:12;15.80;99.90
52415;DHT22;38340;52.964;6.086;2022-09-02T07:11:39;15.90;99.90
52415;DHT22;38340;52.964;6.086;2022-09-02T07:14:05;16.10;99.90
52415;DHT22;38340;52.964;6.086;2022-09-02T07:16:37;16.20;99.90
52415;DHT22;38340;52.964;6.086;2022-09-02T07:19:06;16.40;99.90
52415;DHT22;38340;52.964;6.086;2022-09-02T07:21:33;16.50;99.90
52415;DHT22;38340;52.964;6.086;2022-09-02T07:23:59;16.70;99.90
52415;DHT22;38340;52.964;6.086;2022-09-02T07:26:26;16.80;99.90
52415;DHT22;38340;52.964;6.086;2022-09-02T07:28:53;16.90;99.90
52415;DHT22;38340;52.964;6.086;2022-09-02T07:31:18;17.00;99.90
52415;DHT22;38340;52.964;6.086;2022-09-02T07:33:45;17.10;99.90
52415;DHT22;38340;52.964;6.086;2022-09-02T07:36:14;17.20;99.90
52415;DHT22;38340;52.964;6.086;2022-09-02T07:38:41;17.30;99.90
52415;DHT22;38340;52.964;6.086;2022-09-02T07:41:09;17.40;99.90
52415;DHT22;38340;52.964;6.086;2022-09-02T07:43:36;17.50;99.90
52415;DHT22;38340;52.964;6.086;2022-09-02T07:46:03;17.60;99.90
52415;DHT22;38340;52.964;6.086;2022-09-02T07:48:30;17.70;99.90
52415;DHT22;38340;52.964;6.086;2022-09-02T07:50:57;17.80;99.90
52415;DHT22;38340;52.964;6.086;2022-09-02T07:53:23;17.90;99.90
52415;DHT22;38340;52.964;6.086;2022-09-02T07:55:49;18.00;99.90
52415;DHT22;38340;52.964;6.086;2022-09-02T07:58:16;18.20;99.90
52415;DHT22;38340;52.964;6.086;2022-09-02T08:00:42;18.30;99.90
52415;DHT22;38340;52.964;6.086;2022-09-02T08:03:10;18.40;99.90
52415;DHT22;38340;52.964;6.086;2022-09-02T08:05:36;18.50;99.90
52415;DHT22;38340;52.964;6.086;2022-09-02T08:08:03;18.60;99.90
52415;DHT22;38340;52.964;6.086;2022-09-02T08:10:29;18.70;99.90
52415;DHT22;38340;52.964;6.086;2022-09-02T08:12:57;18.90;99.90
52415;DHT22;38340;52.964;6.086;2022-09-02T08:15:26;19.00;99.90
52415;DHT22;38340;52.964;6.086;2022-09-02T08:17:54;19.10;99.90
52415;DHT22;38340;52.964;6.086;2022-09-02T08:20:21;19.30;99.90
52415;DHT22;38340;52.964;6.086;2022-09-02T08:22:47;19.40;99.90
52415;DHT22;38340;52.964;6.086;2022-09-02T08:25:13;19.50;99.90
52415;DHT22;38340;52.964;6.086;2022-09-02T08:27:39;19.60;99.90
52415;DHT22;38340;52.964;6.086;2022-09-02T08:30:06;19.70;99.90
52415;DHT22;38340;52.964;6.086;2022-09-02T08:32:35;19.80;99.90
52415;DHT22;38340;52.964;6.086;2022-09-02T08:35:01;20.00;99.90
52415;DHT22;38340;52.964;6.086;2022-09-02T08:37:29;20.10;99.90
52415;DHT22;38340;52.964;6.086;2022-09-02T08:39:56;20.20;99.90
52415;DHT22;38340;52.964;6.086;2022-09-02T08:42:22;20.30;99.90
52415;DHT22;38340;52.964;6.086;2022-09-02T08:44:50;20.30;99.90
52415;DHT22;38340;52.964;6.086;2022-09-02T08:47:24;20.30;99.90
52415;DHT22;38340;52.964;6.086;2022-09-02T08:49:54;20.40;99.90
52415;DHT22;38340;52.964;6.086;2022-09-02T08:54:53;20.70;99.90
52415;DHT22;38340;52.964;6.086;2022-09-02T08:57:23;20.80;99.90
52415;DHT22;38340;52.964;6.086;2022-09-02T08:59:51;20.90;99.90
52415;DHT22;38340;52.964;6.086;2022-09-02T09:02:25;21.00;99.90
52415;DHT22;38340;52.964;6.086;2022-09-02T09:07:36;21.10;99.90
52415;DHT22;38340;52.964;6.086;2022-09-02T09:17:57;21.60;99.90
52415;DHT22;38340;52.964;6.086;2022-09-02T09:20:29;21.70;99.90
52415;DHT22;38340;52.964;6.086;2022-09-02T09:22:58;21.70;99.90
52415;DHT22;38340;52.964;6.086;2022-09-02T09:25:25;21.70;99.90
52415;DHT22;38340;52.964;6.086;2022-09-02T09:27:59;21.80;99.90
52415;DHT22;38340;52.964;6.086;2022-09-02T09:30:26;21.80;99.90
52415;DHT22;38340;52.964;6.086;2022-09-02T09:32:54;21.90;99.90
52415;DHT22;38340;52.964;6.086;2022-09-02T09:35:22;22.00;99.90
52415;DHT22;38340;52.964;6.086;2022-09-02T09:37:53;22.10;99.90
52415;DHT22;38340;52.964;6.086;2022-09-02T09:45:52;22.40;99.90
52415;DHT22;38340;52.964;6.086;2022-09-02T09:48:22;22.50;99.90
52415;DHT22;38340;52.964;6.086;2022-09-02T09:53:22;22.70;99.90
52415;DHT22;38340;52.964;6.086;2022-09-02T09:55:54;22.80;99.90
52415;DHT22;38340;52.964;6.086;2022-09-02T09:58:33;22.90;99.90
52415;DHT22;38340;52.964;6.086;2022-09-02T10:03:41;23.10;99.90
52415;DHT22;38340;52.964;6.086;2022-09-02T10:06:20;23.20;99.90
52415;DHT22;38340;52.964;6.086;2022-09-02T10:11:30;23.40;99.90
52415;DHT22;38340;52.964;6.086;2022-09-02T10:14:08;23.40;99.90
52415;DHT22;38340;52.964;6.086;2022-09-02T10:19:30;23.60;99.90
52415;DHT22;38340;52.964;6.086;2022-09-02T10:22:27;23.70;99.90
52415;DHT22;38340;52.964;6.086;2022-09-02T10:25:16;23.80;99.90
52415;DHT22;38340;52.964;6.086;2022-09-02T10:30:23;23.80;99.90
52415;DHT22;38340;52.964;6.086;2022-09-02T10:35:47;23.70;99.90
52415;DHT22;38340;52.964;6.086;2022-09-02T10:38:26;23.70;99.90
52415;DHT22;38340;52.964;6.086;2022-09-02T10:47:09;24.10;99.90
52415;DHT22;38340;52.964;6.086;2022-09-02T10:49:55;24.10;99.90
52415;DHT22;38340;52.964;6.086;2022-09-02T10:58:03;24.40;99.10
52415;DHT22;38340;52.964;6.086;2022-09-02T11:00:32;24.40;98.50
52415;DHT22;38340;52.964;6.086;2022-09-02T11:05:53;24.40;98.30
52415;DHT22;38340;52.964;6.086;2022-09-02T11:11:19;24.30;98.20
52415;DHT22;38340;52.964;6.086;2022-09-02T11:14:19;24.40;98.40
52415;DHT22;38340;52.964;6.086;2022-09-02T11:17:06;24.30;97.90
52415;DHT22;38340;52.964;6.086;2022-09-02T11:19:49;24.30;97.90
52415;DHT22;38340;52.964;6.086;2022-09-02T11:22:34;24.30;98.00
52415;DHT22;38340;52.964;6.086;2022-09-02T11:25:14;24.40;97.90
52415;DHT22;38340;52.964;6.086;2022-09-02T11:27:45;24.40;98.10
52415;DHT22;38340;52.964;6.086;2022-09-02T11:30:21;24.50;97.60
52415;DHT22;38340;52.964;6.086;2022-09-02T11:35:33;24.50;97.50
52415;DHT22;38340;52.964;6.086;2022-09-02T11:38:02;24.50;97.40
52415;DHT22;38340;52.964;6.086;2022-09-02T11:46:23;24.60;97.20
52415;DHT22;38340;52.964;6.086;2022-09-02T11:52:03;24.50;97.20
52415;DHT22;38340;52.964;6.086;2022-09-02T11:54:42;24.50;97.30
52415;DHT22;38340;52.964;6.086;2022-09-02T11:57:18;24.60;97.10
52415;DHT22;38340;52.964;6.086;2022-09-02T12:02:48;24.70;97.00
52415;DHT22;38340;52.964;6.086;2022-09-02T12:10:55;24.90;96.70
52415;DHT22;38340;52.964;6.086;2022-09-02T12:13:43;25.00;96.80
52415;DHT22;38340;52.964;6.086;2022-09-02T12:21:21;24.90;96.00
52415;DHT22;38340;52.964;6.086;2022-09-02T12:26:22;25.00;95.70
52415;DHT22;38340;52.964;6.086;2022-09-02T12:28:52;24.90;96.10
52415;DHT22;38340;52.964;6.086;2022-09-02T12:31:41;25.00;96.60
52415;DHT22;38340;52.964;6.086;2022-09-02T12:36:59;25.20;95.80
52415;DHT22;38340;52.964;6.086;2022-09-02T12:47:05;25.30;95.60
52415;DHT22;38340;52.964;6.086;2022-09-02T12:49:39;25.30;95.40
52415;DHT22;38340;52.964;6.086;2022-09-02T12:52:11;25.40;95.60
52415;DHT22;38340;52.964;6.086;2022-09-02T12:57:04;25.50;95.90
52415;DHT22;38340;52.964;6.086;2022-09-02T12:59:33;25.50;95.20
52415;DHT22;38340;52.964;6.086;2022-09-02T13:02:25;25.50;95.30
52415;DHT22;38340;52.964;6.086;2022-09-02T13:08:06;25.40;94.90
52415;DHT22;38340;52.964;6.086;2022-09-02T13:13:46;25.40;95.00
52415;DHT22;38340;52.964;6.086;2022-09-02T13:30:06;25.50;95.10
52415;DHT22;38340;52.964;6.086;2022-09-02T13:32:32;25.60;95.40
52415;DHT22;38340;52.964;6.086;2022-09-02T13:35:07;25.70;95.10
52415;DHT22;38340;52.964;6.086;2022-09-02T13:37:37;25.70;95.20
52415;DHT22;38340;52.964;6.086;2022-09-02T13:40:17;25.70;95.20
52415;DHT22;38340;52.964;6.086;2022-09-02T13:42:49;25.70;94.60
52415;DHT22;38340;52.964;6.086;2022-09-02T13:45:17;25.70;94.80
52415;DHT22;38340;52.964;6.086;2022-09-02T13:47:49;25.70;94.80
52415;DHT22;38340;52.964;6.086;2022-09-02T13:50:27;25.60;94.90
52415;DHT22;38340;52.964;6.086;2022-09-02T13:53:25;25.70;95.00
52415;DHT22;38340;52.964;6.086;2022-09-02T13:55:54;25.70;94.70
52415;DHT22;38340;52.964;6.086;2022-09-02T14:00:53;25.60;94.80
52415;DHT22;38340;52.964;6.086;2022-09-02T14:03:19;25.60;94.60
52415;DHT22;38340;52.964;6.086;2022-09-02T14:05:48;25.50;94.10
52415;DHT22;38340;52.964;6.086;2022-09-02T14:08:24;25.50;94.00
52415;DHT22;38340;52.964;6.086;2022-09-02T14:10:52;25.40;93.50
52415;DHT22;38340;52.964;6.086;2022-09-02T14:13:19;25.40;93.80
52415;DHT22;38340;52.964;6.086;2022-09-02T14:15:45;25.40;93.90
52415;DHT22;38340;52.964;6.086;2022-09-02T14:18:16;25.50;93.60
52415;DHT22;38340;52.964;6.086;2022-09-02T14:21:15;25.40;93.50
52415;DHT22;38340;52.964;6.086;2022-09-02T14:23:49;25.30;93.80
52415;DHT22;38340;52.964;6.086;2022-09-02T14:26:45;25.10;94.00
52415;DHT22;38340;52.964;6.086;2022-09-02T14:29:17;25.10;94.40
52415;DHT22;38340;52.964;6.086;2022-09-02T14:31:45;25.10;94.40
52415;DHT22;38340;52.964;6.086;2022-09-02T14:37:27;25.30;94.50
52415;DHT22;38340;52.964;6.086;2022-09-02T14:40:06;25.30;94.20
52415;DHT22;38340;52.964;6.086;2022-09-02T14:42:51;25.40;94.10
52415;DHT22;38340;52.964;6.086;2022-09-02T14:45:31;25.40;93.50
52415;DHT22;38340;52.964;6.086;2022-09-02T14:48:22;25.40;93.90
52415;DHT22;38340;52.964;6.086;2022-09-02T14:50:59;25.40;93.80
52415;DHT22;38340;52.964;6.086;2022-09-02T14:53:27;25.40;93.90
52415;DHT22;38340;52.964;6.086;2022-09-02T14:55:54;25.40;94.10
52415;DHT22;38340;52.964;6.086;2022-09-02T14:58:22;25.50;93.90
52415;DHT22;38340;52.964;6.086;2022-09-02T15:00:50;25.50;94.30
52415;DHT22;38340;52.964;6.086;2022-09-02T15:03:17;25.60;94.30
52415;DHT22;38340;52.964;6.086;2022-09-02T15:05:43;25.60;94.60
52415;DHT22;38340;52.964;6.086;2022-09-02T15:08:10;25.60;94.00
52415;DHT22;38340;52.964;6.086;2022-09-02T15:10:40;25.70;94.00
52415;DHT22;38340;52.964;6.086;2022-09-02T15:13:11;25.70;94.10
52415;DHT22;38340;52.964;6.086;2022-09-02T15:15:38;25.70;93.90
52415;DHT22;38340;52.964;6.086;2022-09-02T15:18:04;25.70;93.80
52415;DHT22;38340;52.964;6.086;2022-09-02T15:20:31;25.70;93.70
52415;DHT22;38340;52.964;6.086;2022-09-02T15:22:57;25.70;93.80
52415;DHT22;38340;52.964;6.086;2022-09-02T15:25:23;25.70;93.90
52415;DHT22;38340;52.964;6.086;2022-09-02T15:27:49;25.70;93.50
52415;DHT22;38340;52.964;6.086;2022-09-02T15:30:14;25.60;93.40
52415;DHT22;38340;52.964;6.086;2022-09-02T15:32:40;25.60;93.60
52415;DHT22;38340;52.964;6.086;2022-09-02T15:35:07;25.70;93.80
52415;DHT22;38340;52.964;6.086;2022-09-02T15:37:34;25.60;93.40
52415;DHT22;38340;52.964;6.086;2022-09-02T15:40:03;25.60;93.50
52415;DHT22;38340;52.964;6.086;2022-09-02T15:42:35;25.60;93.50
52415;DHT22;38340;52.964;6.086;2022-09-02T15:45:03;25.60;93.80
52415;DHT22;38340;52.964;6.086;2022-09-02T15:47:29;25.50;93.50
52415;DHT22;38340;52.964;6.086;2022-09-02T15:49:55;25.40;93.60
52415;DHT22;38340;52.964;6.086;2022-09-02T15:52:24;25.30;93.40
52415;DHT22;38340;52.964;6.086;2022-09-02T15:54:52;25.30;93.60
52415;DHT22;38340;52.964;6.086;2022-09-02T15:57:18;25.20;93.30
52415;DHT22;38340;52.964;6.086;2022-09-02T15:59:43;25.20;93.20
52415;DHT22;38340;52.964;6.086;2022-09-02T16:02:09;25.20;93.20
52415;DHT22;38340;52.964;6.086;2022-09-02T16:04:35;25.10;93.10
52415;DHT22;38340;52.964;6.086;2022-09-02T16:07:00;25.10;93.10
52415;DHT22;38340;52.964;6.086;2022-09-02T16:09:27;25.00;92.60
52415;DHT22;38340;52.964;6.086;2022-09-02T16:11:53;24.80;92.80
52415;DHT22;38340;52.964;6.086;2022-09-02T16:14:22;24.80;92.90
52415;DHT22;38340;52.964;6.086;2022-09-02T16:16:52;24.80;93.00
52415;DHT22;38340;52.964;6.086;2022-09-02T16:19:20;24.80;92.70
52415;DHT22;38340;52.964;6.086;2022-09-02T16:21:46;24.70;92.50
52415;DHT22;38340;52.964;6.086;2022-09-02T16:24:12;24.60;92.50
52415;DHT22;38340;52.964;6.086;2022-09-02T16:26:39;24.50;92.70
52415;DHT22;38340;52.964;6.086;2022-09-02T16:29:07;24.50;92.80
52415;DHT22;38340;52.964;6.086;2022-09-02T16:31:36;24.40;93.10
52415;DHT22;38340;52.964;6.086;2022-09-02T16:34:07;24.40;93.30
52415;DHT22;38340;52.964;6.086;2022-09-02T16:36:36;24.30;93.30
52415;DHT22;38340;52.964;6.086;2022-09-02T16:39:03;24.30;93.20
52415;DHT22;38340;52.964;6.086;2022-09-02T16:41:37;24.20;93.40
52415;DHT22;38340;52.964;6.086;2022-09-02T16:44:05;24.10;93.50
52415;DHT22;38340;52.964;6.086;2022-09-02T16:46:32;24.00;93.40
52415;DHT22;38340;52.964;6.086;2022-09-02T16:48:58;24.00;93.50
52415;DHT22;38340;52.964;6.086;2022-09-02T16:51:25;23.90;93.60
52415;DHT22;38340;52.964;6.086;2022-09-02T16:53:56;23.90;93.80
52415;DHT22;38340;52.964;6.086;2022-09-02T16:56:22;23.90;94.00
52415;DHT22;38340;52.964;6.086;2022-09-02T16:58:49;23.80;94.10
52415;DHT22;38340;52.964;6.086;2022-09-02T17:01:15;23.80;94.40
52415;DHT22;38340;52.964;6.086;2022-09-02T17:03:42;23.80;94.30
52415;DHT22;38340;52.964;6.086;2022-09-02T17:06:09;23.80;94.20
52415;DHT22;38340;52.964;6.086;2022-09-02T17:08:34;23.70;94.20
52415;DHT22;38340;52.964;6.086;2022-09-02T17:11:27;23.70;94.40
52415;DHT22;38340;52.964;6.086;2022-09-02T17:13:59;23.60;94.20
52415;DHT22;38340;52.964;6.086;2022-09-02T17:16:33;23.60;94.50
52415;DHT22;38340;52.964;6.086;2022-09-02T17:18:59;23.50;94.50
52415;DHT22;38340;52.964;6.086;2022-09-02T17:23:59;23.40;95.00
52415;DHT22;38340;52.964;6.086;2022-09-02T17:26:27;23.30;94.90
52415;DHT22;38340;52.964;6.086;2022-09-02T17:28:54;23.20;94.90
52415;DHT22;38340;52.964;6.086;2022-09-02T17:31:26;23.20;95.00
52415;DHT22;38340;52.964;6.086;2022-09-02T17:33:55;23.10;95.10
52415;DHT22;38340;52.964;6.086;2022-09-02T17:36:22;23.10;95.30
52415;DHT22;38340;52.964;6.086;2022-09-02T17:38:53;23.10;95.10
52415;DHT22;38340;52.964;6.086;2022-09-02T17:41:18;23.00;95.10
52415;DHT22;38340;52.964;6.086;2022-09-02T17:44:02;22.90;95.10
52415;DHT22;38340;52.964;6.086;2022-09-02T17:46:29;22.80;95.40